Time;durP1;ratioP1;P1;durP2;ratioP2;P2;SDS_P1;SDS_P2;PMS_P1;PMS_P2;Temp;Humidity;BMP_temperature;BMP_pressure;BME280_temperature;BME280_humidity;BME280_pressure;Samples;Min_cycle;Max_cycle;Signal;HPM_P1;HPM_P2
2021/07/07 00:00:49;;;;;;;5.57;5.05;;;20.10;99.90;;;;;;4193456;28;20033;-59
2021/07/07 00:02:51;;;;;;;5.40;4.90;;;20.10;99.90;;;;;;4193969;28;20093;-60
2021/07/07 00:04:53;;;;;;;7.40;4.28;;;20.00;99.90;;;;;;4194199;28;20098;-59
2021/07/07 00:06:54;;;;;;;7.72;4.57;;;20.00;99.90;;;;;;4193593;28;20036;-59
2021/07/07 00:08:56;;;;;;;4.68;4.00;;;20.00;99.90;;;;;;4194690;28;20033;-59
2021/07/07 00:10:57;;;;;;;8.00;4.47;;;19.90;99.90;;;;;;4193314;28;20032;-59
2021/07/07 00:12:59;;;;;;;7.15;4.18;;;19.90;99.90;;;;;;4194603;28;20041;-59
2021/07/07 00:15:01;;;;;;;6.32;4.78;;;19.90;99.90;;;;;;4193076;28;20016;-59
2021/07/07 00:17:02;;;;;;;5.68;4.85;;;19.80;99.90;;;;;;4194684;28;20479;-59
2021/07/07 00:19:03;;;;;;;6.35;4.85;;;19.80;99.90;;;;;;4193599;28;20032;-59
2021/07/07 00:21:05;;;;;;;5.78;4.25;;;19.70;99.90;;;;;;4194858;28;20094;-59
2021/07/07 00:23:06;;;;;;;9.23;4.65;;;19.70;99.90;;;;;;4194259;28;20725;-57
2021/07/07 00:25:09;;;;;;;7.50;4.47;;;19.70;99.90;;;;;;4193731;28;20036;-59
2021/07/07 00:27:12;;;;;;;7.15;4.78;;;19.70;99.90;;;;;;4192473;28;20438;-60
2021/07/07 00:29:13;;;;;;;6.85;4.43;;;19.70;99.90;;;;;;4193595;28;20447;-59
2021/07/07 00:31:14;;;;;;;8.38;4.57;;;19.70;99.90;;;;;;4194033;28;20052;-59
2021/07/07 00:33:15;;;;;;;4.82;4.20;;;19.70;99.90;;;;;;4193823;28;20094;-58
2021/07/07 00:35:17;;;;;;;6.32;4.90;;;19.70;99.90;;;;;;4194086;28;20037;-60
2021/07/07 00:37:18;;;;;;;5.68;4.63;;;19.70;99.90;;;;;;4191458;28;20505;-60
2021/07/07 00:39:19;;;;;;;5.68;5.03;;;19.70;99.90;;;;;;4194467;28;20028;-59
2021/07/07 00:41:20;;;;;;;10.45;4.90;;;19.60;99.90;;;;;;4191280;28;20036;-60
2021/07/07 00:43:21;;;;;;;8.38;5.55;;;19.60;99.90;;;;;;4193456;28;20074;-59
2021/07/07 00:45:23;;;;;;;6.38;4.80;;;19.60;99.90;;;;;;4192252;28;20045;-59
2021/07/07 00:47:25;;;;;;;5.18;4.32;;;19.60;99.90;;;;;;4190970;28;20033;-59
2021/07/07 00:49:26;;;;;;;8.60;4.75;;;19.60;99.90;;;;;;4191287;28;20086;-58
2021/07/07 00:51:27;;;;;;;6.68;4.85;;;19.60;99.90;;;;;;4179162;28;20045;-58
2021/07/07 00:53:28;;;;;;;5.07;4.57;;;19.60;99.90;;;;;;4174675;28;20049;-58
2021/07/07 00:55:29;;;;;;;6.20;4.32;;;19.50;99.90;;;;;;4175115;28;20041;-57
2021/07/07 00:57:34;;;;;;;5.35;4.65;;;19.50;99.90;;;;;;4175099;28;20085;-59
2021/07/07 00:59:38;;;;;;;5.28;4.68;;;19.50;99.90;;;;;;4174237;28;20094;-59
2021/07/07 01:01:41;;;;;;;6.47;4.70;;;19.50;99.90;;;;;;4174330;28;20025;-58
2021/07/07 01:03:42;;;;;;;7.90;4.82;;;19.40;99.90;;;;;;4174589;28;20094;-58
2021/07/07 01:05:43;;;;;;;5.95;4.53;;;19.40;99.90;;;;;;4174765;28;20086;-59
2021/07/07 01:07:44;;;;;;;7.53;5.05;;;19.50;99.90;;;;;;4174304;28;20037;-60
2021/07/07 01:09:45;;;;;;;8.68;4.85;;;19.50;99.90;;;;;;4174566;28;20024;-60
2021/07/07 01:11:46;;;;;;;6.32;4.90;;;19.40;99.90;;;;;;4173891;28;20051;-59
2021/07/07 01:13:48;;;;;;;6.65;4.97;;;19.40;99.90;;;;;;4174604;28;20078;-60
2021/07/07 01:15:51;;;;;;;6.47;4.20;;;19.30;99.90;;;;;;4173865;28;20037;-59
2021/07/07 01:17:52;;;;;;;5.15;4.25;;;19.30;99.90;;;;;;4174922;28;20025;-59
2021/07/07 01:19:53;;;;;;;6.68;4.72;;;19.20;99.90;;;;;;4173826;28;20055;-59
2021/07/07 01:21:55;;;;;;;5.22;4.40;;;19.20;99.90;;;;;;4174216;28;20473;-57
2021/07/07 01:23:56;;;;;;;5.72;4.25;;;19.20;99.90;;;;;;4173603;28;20037;-59
2021/07/07 01:25:58;;;;;;;8.20;5.10;;;19.20;99.90;;;;;;4174745;28;20394;-60
2021/07/07 01:28:05;;;;;;;6.38;4.50;;;19.20;99.90;;;;;;4173572;28;20053;-59
2021/07/07 01:30:08;;;;;;;6.50;5.03;;;19.20;99.90;;;;;;4174371;28;20048;-60
2021/07/07 01:32:09;;;;;;;7.07;4.57;;;19.20;99.90;;;;;;4173670;28;20106;-59
2021/07/07 01:34:11;;;;;;;4.70;4.30;;;19.10;99.90;;;;;;4173977;28;20029;-59
2021/07/07 01:36:12;;;;;;;7.63;4.72;;;19.10;99.90;;;;;;4174125;28;20033;-59
2021/07/07 01:38:13;;;;;;;7.28;4.78;;;19.10;99.90;;;;;;4174510;28;20661;-59
2021/07/07 01:40:19;;;;;;;8.13;4.90;;;19.10;99.90;;;;;;4174402;28;20036;-60
2021/07/07 01:42:20;;;;;;;6.40;4.85;;;19.10;99.90;;;;;;4174664;28;20025;-60
2021/07/07 01:44:22;;;;;;;9.50;5.45;;;19.10;99.90;;;;;;4189445;28;20044;-59
2021/07/07 01:46:23;;;;;;;7.72;5.50;;;19.10;99.90;;;;;;4189715;28;20028;-59
2021/07/07 01:48:24;;;;;;;7.72;4.20;;;19.10;99.90;;;;;;4182100;28;20095;-60
2021/07/07 01:50:25;;;;;;;5.57;4.97;;;19.10;99.90;;;;;;4173287;28;20025;-59
2021/07/07 01:52:27;;;;;;;6.18;4.53;;;19.10;99.90;;;;;;4173911;28;20029;-59
2021/07/07 01:54:28;;;;;;;6.90;4.57;;;19.10;99.90;;;;;;4171436;28;20134;-59
2021/07/07 01:56:29;;;;;;;7.78;5.40;;;19.00;99.90;;;;;;4172839;28;20037;-59
2021/07/07 01:58:31;;;;;;;4.80;4.35;;;19.00;99.90;;;;;;4173594;28;20079;-59
2021/07/07 02:00:34;;;;;;;7.97;4.35;;;19.00;99.90;;;;;;4178288;28;20106;-59
2021/07/07 02:02:35;;;;;;;5.70;4.65;;;18.90;99.90;;;;;;4189212;28;20028;-59
2021/07/07 02:04:36;;;;;;;7.35;4.43;;;19.00;99.90;;;;;;4190311;28;20098;-59
2021/07/07 02:06:38;;;;;;;6.60;4.25;;;19.00;99.90;;;;;;4189828;28;20489;-59
2021/07/07 02:08:40;;;;;;;7.82;4.90;;;19.00;99.90;;;;;;4190061;28;20044;-60
2021/07/07 02:10:41;;;;;;;8.45;5.22;;;18.90;99.90;;;;;;4190269;28;20036;-57
2021/07/07 02:12:42;;;;;;;10.38;4.78;;;18.90;99.90;;;;;;4189408;28;20033;-57
2021/07/07 02:14:43;;;;;;;5.47;4.45;;;18.90;99.90;;;;;;4189952;28;20033;-59
2021/07/07 02:16:45;;;;;;;9.32;4.45;;;18.90;99.90;;;;;;4189527;28;20028;-59
2021/07/07 02:18:46;;;;;;;6.13;4.75;;;18.80;99.90;;;;;;4189810;28;20086;-59
2021/07/07 02:20:47;;;;;;;5.07;4.47;;;18.80;99.90;;;;;;4189153;28;20791;-60
2021/07/07 02:22:49;;;;;;;5.32;4.78;;;18.80;99.90;;;;;;4190105;28;20086;-59
2021/07/07 02:24:50;;;;;;;5.10;4.40;;;18.90;99.90;;;;;;4174922;28;20060;-59
2021/07/07 02:26:51;;;;;;;6.72;4.63;;;18.80;99.90;;;;;;4173798;28;20037;-59
2021/07/07 02:28:52;;;;;;;7.68;4.57;;;18.80;99.90;;;;;;4172767;28;20025;-60
2021/07/07 02:30:55;;;;;;;6.95;5.13;;;18.80;99.90;;;;;;4171664;28;20045;-60
2021/07/07 02:32:57;;;;;;;7.50;4.55;;;18.70;99.90;;;;;;4172833;28;20550;-59
2021/07/07 02:34:58;;;;;;;6.68;4.97;;;18.70;99.90;;;;;;4173056;28;20456;-60
2021/07/07 02:36:59;;;;;;;8.40;5.15;;;18.70;99.90;;;;;;4181713;28;20099;-60
2021/07/07 02:39:00;;;;;;;9.73;5.20;;;18.70;99.90;;;;;;4190034;28;20077;-60
2021/07/07 02:41:03;;;;;;;6.90;5.10;;;18.60;99.90;;;;;;4189019;28;20703;-59
2021/07/07 02:43:06;;;;;;;6.57;4.78;;;18.60;99.90;;;;;;4172833;28;20063;-59
2021/07/07 02:45:09;;;;;;;5.78;4.45;;;18.60;99.90;;;;;;4172784;28;20033;-59
2021/07/07 02:47:11;;;;;;;6.43;4.88;;;18.60;99.90;;;;;;4172399;28;20040;-59
2021/07/07 02:49:13;;;;;;;7.88;5.55;;;18.60;99.90;;;;;;4173047;28;20102;-60
2021/07/07 02:51:14;;;;;;;5.93;5.07;;;18.60;99.90;;;;;;4172463;28;20102;-60
2021/07/07 02:53:17;;;;;;;23.13;15.32;;;18.60;99.90;;;;;;4173149;28;20033;-60
2021/07/07 02:55:21;;;;;;;10.35;7.85;;;18.70;99.90;;;;;;4171814;28;20075;-59
2021/07/07 02:57:22;;;;;;;10.65;8.18;;;18.80;99.90;;;;;;4171475;28;20049;-59
2021/07/07 02:59:23;;;;;;;6.53;4.50;;;18.80;99.90;;;;;;4172423;28;20033;-59
2021/07/07 03:01:24;;;;;;;7.93;4.68;;;18.90;99.90;;;;;;4173127;28;20049;-59
2021/07/07 03:03:26;;;;;;;6.40;4.35;;;19.00;99.90;;;;;;4172001;28;20078;-60
2021/07/07 03:05:28;;;;;;;6.45;4.38;;;19.10;99.90;;;;;;4187611;28;20032;-59
2021/07/07 03:07:30;;;;;;;7.53;5.00;;;19.30;99.90;;;;;;4186813;28;20028;-60
2021/07/07 03:09:31;;;;;;;6.60;4.38;;;19.40;99.90;;;;;;4177536;28;20566;-59
2021/07/07 03:11:34;;;;;;;9.35;5.03;;;19.60;99.90;;;;;;4172006;28;20420;-60
2021/07/07 03:13:36;;;;;;;6.05;4.60;;;19.70;99.90;;;;;;4172648;28;20074;-60
2021/07/07 03:15:38;;;;;;;7.38;5.10;;;19.90;99.90;;;;;;4172370;28;20024;-59
2021/07/07 03:17:39;;;;;;;11.63;5.05;;;20.00;99.90;;;;;;4173326;28;20618;-58
2021/07/07 03:19:40;;;;;;;6.35;5.15;;;20.20;99.90;;;;;;4172422;28;20021;-59
2021/07/07 03:21:41;;;;;;;8.80;4.80;;;20.30;99.90;;;;;;4172274;28;20737;-60
2021/07/07 03:23:42;;;;;;;5.32;4.65;;;20.60;99.90;;;;;;4172497;28;20029;-60
2021/07/07 03:25:43;;;;;;;6.55;4.18;;;20.80;99.90;;;;;;4171567;28;20037;-59
2021/07/07 03:27:47;;;;;;;6.82;5.00;;;20.90;99.90;;;;;;4173801;28;20098;-59
2021/07/07 03:29:48;;;;;;;7.30;4.82;;;21.10;99.90;;;;;;4172028;28;20113;-58
2021/07/07 03:31:49;;;;;;;7.50;4.95;;;21.40;99.90;;;;;;4172624;28;20056;-59
2021/07/07 03:33:51;;;;;;;8.32;4.50;;;21.80;99.90;;;;;;4185716;28;20044;-57
2021/07/07 03:35:52;;;;;;;5.47;4.50;;;22.10;99.90;;;;;;4188985;28;20037;-60
2021/07/07 03:37:54;;;;;;;4.50;4.10;;;22.40;99.90;;;;;;4188675;28;20431;-60
2021/07/07 03:39:55;;;;;;;7.82;4.45;;;22.70;99.90;;;;;;4189233;28;20553;-60
2021/07/07 03:41:56;;;;;;;5.35;4.57;;;23.10;99.90;;;;;;4188606;28;20342;-59
2021/07/07 03:43:57;;;;;;;4.50;4.05;;;23.40;99.90;;;;;;4189185;28;20799;-60
2021/07/07 03:45:58;;;;;;;5.10;3.97;;;23.80;99.90;;;;;;4188627;28;20121;-58
2021/07/07 03:48:00;;;;;;;5.85;4.38;;;24.10;99.90;;;;;;4187422;28;20032;-59
2021/07/07 03:50:01;;;;;;;6.82;4.63;;;24.20;99.90;;;;;;4188601;28;20040;-60
2021/07/07 03:52:03;;;;;;;7.88;4.60;;;24.10;99.90;;;;;;4186668;28;20044;-60
2021/07/07 03:54:04;;;;;;;5.70;3.60;;;24.20;99.90;;;;;;4189141;28;20024;-61
2021/07/07 03:56:06;;;;;;;6.38;4.40;;;24.40;99.90;;;;;;4187663;28;20102;-60
2021/07/07 03:58:07;;;;;;;8.35;4.35;;;24.80;99.90;;;;;;4188470;28;20074;-60
2021/07/07 04:00:11;;;;;;;6.25;4.22;;;24.90;99.90;;;;;;4185860;28;20021;-60
2021/07/07 04:02:13;;;;;;;13.88;5.53;;;25.10;99.90;;;;;;4188166;28;20085;-59
2021/07/07 04:04:15;;;;;;;8.27;4.50;;;25.40;99.70;;;;;;4179317;28;20025;-60
2021/07/07 04:06:17;;;;;;;7.05;4.45;;;25.60;99.30;;;;;;4172333;28;20041;-60
2021/07/07 04:08:18;;;;;;;6.05;4.13;;;25.70;98.80;;;;;;4172942;28;20045;-59
2021/07/07 04:10:21;;;;;;;4.95;3.78;;;26.00;98.50;;;;;;4177685;28;20117;-57
2021/07/07 04:12:22;;;;;;;7.68;3.90;;;26.20;98.10;;;;;;4188165;28;20033;-59
2021/07/07 04:14:25;;;;;;;5.95;3.80;;;26.60;97.50;;;;;;4188295;28;20500;-59
2021/07/07 04:16:26;;;;;;;4.80;4.30;;;27.00;96.90;;;;;;4187518;28;20422;-57
2021/07/07 04:18:27;;;;;;;8.77;4.07;;;27.20;96.30;;;;;;4188474;28;20040;-60
2021/07/07 04:20:29;;;;;;;3.97;3.58;;;27.60;95.90;;;;;;4188051;28;20021;-54
2021/07/07 04:22:30;;;;;;;8.18;4.90;;;28.00;95.20;;;;;;4188420;28;20036;-59
2021/07/07 04:24:31;;;;;;;4.82;3.40;;;28.20;94.30;;;;;;4191372;28;20032;-58
2021/07/07 04:26:32;;;;;;;4.97;3.72;;;28.10;94.00;;;;;;4191104;28;20098;-60
2021/07/07 04:28:33;;;;;;;4.45;4.05;;;28.10;93.70;;;;;;4190857;28;20254;-59
2021/07/07 04:30:36;;;;;;;5.60;3.63;;;28.30;93.30;;;;;;4190208;28;20048;-60
2021/07/07 04:32:38;;;;;;;6.72;3.42;;;28.20;92.80;;;;;;4191600;28;20090;-60
2021/07/07 04:34:39;;;;;;;4.80;3.60;;;28.30;92.90;;;;;;4190500;28;20110;-59
2021/07/07 04:36:41;;;;;;;10.77;3.67;;;28.80;92.30;;;;;;4192711;28;20037;-60
2021/07/07 04:38:42;;;;;;;6.35;3.90;;;29.20;91.60;;;;;;4201590;28;20523;-59
2021/07/07 04:40:43;;;;;;;8.60;3.72;;;29.50;91.10;;;;;;4203998;28;20044;-60
2021/07/07 04:42:44;;;;;;;8.23;3.53;;;29.70;90.50;;;;;;4207636;28;20097;-61
2021/07/07 04:44:45;;;;;;;5.07;3.85;;;29.80;89.90;;;;;;4196669;28;20044;-61
2021/07/07 04:46:47;;;;;;;4.78;3.97;;;29.80;89.20;;;;;;4190715;28;20045;-60
2021/07/07 04:48:48;;;;;;;4.70;3.75;;;29.70;88.60;;;;;;4190871;28;20056;-58
2021/07/07 04:50:49;;;;;;;10.35;5.50;;;29.90;88.30;;;;;;4190166;28;20117;-61
2021/07/07 04:52:50;;;;;;;7.70;4.68;;;29.90;87.50;;;;;;4190169;28;20049;-60
2021/07/07 04:54:51;;;;;;;13.77;5.45;;;30.00;87.10;;;;;;4190291;28;20062;-61
2021/07/07 04:56:52;;;;;;;9.65;4.85;;;30.00;86.60;;;;;;4189847;28;20033;-60
2021/07/07 04:58:55;;;;;;;16.50;6.60;;;30.20;85.80;;;;;;4190684;28;20058;-61
2021/07/07 05:00:56;;;;;;;10.80;6.25;;;29.60;85.40;;;;;;4189688;28;20094;-61
2021/07/07 05:02:57;;;;;;;7.95;5.57;;;29.10;86.50;;;;;;4190992;28;20052;-61
2021/07/07 05:04:58;;;;;;;6.15;4.30;;;29.00;86.90;;;;;;4189423;28;20514;-60
2021/07/07 05:06:59;;;;;;;5.32;4.28;;;29.30;86.40;;;;;;4179547;28;20572;-61
2021/07/07 05:09:00;;;;;;;8.20;4.20;;;29.70;85.30;;;;;;4188181;28;20049;-59
2021/07/07 05:11:02;;;;;;;11.05;3.95;;;30.10;84.20;;;;;;4190411;28;20448;-60
2021/07/07 05:13:06;;;;;;;10.65;4.20;;;30.10;83.10;;;;;;4190750;28;20040;-59
2021/07/07 05:15:11;;;;;;;6.03;3.75;;;30.10;83.10;;;;;;4190306;28;20427;-59
2021/07/07 05:17:13;;;;;;;5.10;3.88;;;30.20;82.50;;;;;;4189223;28;20109;-60
2021/07/07 05:19:14;;;;;;;5.05;3.15;;;30.50;81.90;;;;;;4190493;28;20020;-60
2021/07/07 05:21:15;;;;;;;6.65;3.42;;;31.00;81.20;;;;;;4188760;28;20438;-60
2021/07/07 05:23:17;;;;;;;5.25;4.32;;;31.30;79.90;;;;;;4190324;28;20028;-59
2021/07/07 05:25:19;;;;;;;10.27;3.40;;;31.50;79.10;;;;;;4189645;28;20145;-60
2021/07/07 05:27:21;;;;;;;6.25;3.50;;;31.30;79.00;;;;;;4190105;28;20114;-59
2021/07/07 05:29:22;;;;;;;7.80;4.50;;;31.50;78.10;;;;;;4190543;28;20799;-60
2021/07/07 05:31:23;;;;;;;4.55;3.42;;;31.60;77.70;;;;;;4189960;28;20051;-60
2021/07/07 05:33:29;;;;;;;7.20;2.95;;;31.30;77.20;;;;;;4189628;28;20105;-61
2021/07/07 05:35:32;;;;;;;7.43;3.35;;;31.10;77.20;;;;;;4189496;28;20063;-60
2021/07/07 05:37:33;;;;;;;4.47;3.30;;;31.20;77.10;;;;;;4190557;28;20082;-60
2021/07/07 05:39:34;;;;;;;5.63;3.45;;;31.30;76.30;;;;;;4190213;28;20086;-59
2021/07/07 05:41:35;;;;;;;5.28;3.35;;;31.30;75.90;;;;;;4190493;28;20928;-60
2021/07/07 05:43:36;;;;;;;4.00;3.08;;;31.50;75.90;;;;;;4189262;28;20071;-60
2021/07/07 05:45:37;;;;;;;6.80;3.30;;;31.30;75.10;;;;;;4188269;28;20040;-60
2021/07/07 05:47:38;;;;;;;6.63;3.50;;;31.10;75.20;;;;;;4189384;28;20534;-59
2021/07/07 05:49:40;;;;;;;3.40;3.10;;;31.10;75.20;;;;;;4178056;28;20041;-57
2021/07/07 05:51:41;;;;;;;6.43;3.40;;;31.20;75.00;;;;;;4185165;28;20086;-59
2021/07/07 05:53:42;;;;;;;4.82;3.13;;;31.20;75.00;;;;;;4189213;28;20032;-61
2021/07/07 05:55:43;;;;;;;5.03;3.28;;;30.90;74.80;;;;;;4189420;28;20086;-59
2021/07/07 05:57:44;;;;;;;3.90;3.05;;;30.80;75.20;;;;;;4188452;28;20090;-61
2021/07/07 05:59:45;;;;;;;4.38;3.40;;;30.90;74.90;;;;;;4184005;28;20029;-59
2021/07/07 06:01:47;;;;;;;3.55;3.00;;;30.70;74.90;;;;;;4188107;28;20036;-61
2021/07/07 06:03:48;;;;;;;4.95;3.60;;;30.90;75.10;;;;;;4177875;28;20469;-60
2021/07/07 06:05:49;;;;;;;3.70;3.20;;;30.90;74.90;;;;;;4187974;28;20122;-60
2021/07/07 06:07:51;;;;;;;5.43;3.40;;;31.00;74.90;;;;;;4189468;28;20089;-65
2021/07/07 06:09:52;;;;;;;6.25;3.38;;;31.00;74.60;;;;;;4188633;28;20125;-62
2021/07/07 06:11:55;;;;;;;4.30;3.45;;;31.10;74.40;;;;;;4189932;28;20086;-61
2021/07/07 06:13:56;;;;;;;6.80;3.53;;;31.40;73.80;;;;;;4188049;28;20033;-61
2021/07/07 06:15:57;;;;;;;6.13;4.35;;;31.70;73.70;;;;;;4189467;28;20032;-61
2021/07/07 06:17:59;;;;;;;6.47;3.83;;;32.00;73.00;;;;;;4188830;28;20488;-61
2021/07/07 06:20:00;;;;;;;7.57;3.42;;;32.30;72.10;;;;;;4188924;28;20032;-61
2021/07/07 06:22:02;;;;;;;6.80;3.75;;;32.60;71.90;;;;;;4187439;28;20036;-61
2021/07/07 06:24:03;;;;;;;9.00;4.22;;;32.50;71.40;;;;;;4188126;28;20066;-62
2021/07/07 06:26:04;;;;;;;7.43;4.25;;;32.20;71.70;;;;;;4194834;28;20466;-62
2021/07/07 06:28:06;;;;;;;11.88;5.20;;;32.00;72.20;;;;;;4188493;28;20112;-62
2021/07/07 06:30:10;;;;;;;17.10;7.95;;;32.00;72.50;;;;;;4189370;28;20029;-62
2021/07/07 06:32:13;;;;;;;11.48;4.82;;;31.80;72.50;;;;;;4188391;28;20109;-61
2021/07/07 06:34:15;;;;;;;12.82;4.43;;;31.70;72.50;;;;;;4189332;28;20048;-61
2021/07/07 06:36:16;;;;;;;13.48;5.32;;;31.60;72.50;;;;;;4187949;28;20129;-61
2021/07/07 06:38:17;;;;;;;9.90;4.95;;;31.80;72.30;;;;;;4189575;28;20036;-64
2021/07/07 06:40:20;;;;;;;13.75;6.00;;;31.90;72.10;;;;;;4188376;28;20094;-61
2021/07/07 06:42:21;;;;;;;18.95;5.68;;;32.00;72.30;;;;;;4189063;28;20051;-61
2021/07/07 06:44:22;;;;;;;16.38;8.23;;;31.80;72.20;;;;;;4187820;28;20405;-61
2021/07/07 06:46:23;;;;;;;21.73;7.72;;;31.10;72.70;;;;;;4188834;28;20041;-60
2021/07/07 06:48:24;;;;;;;14.98;4.57;;;30.50;73.70;;;;;;4188048;28;20094;-59
2021/07/07 06:50:25;;;;;;;13.70;4.70;;;30.30;74.40;;;;;;4189224;28;20161;-61
2021/07/07 06:52:27;;;;;;;12.98;4.85;;;30.10;75.00;;;;;;4188357;28;20086;-61
2021/07/07 06:54:28;;;;;;;11.38;4.88;;;30.30;75.00;;;;;;4188847;28;20106;-61
2021/07/07 06:56:29;;;;;;;14.65;4.47;;;30.10;75.30;;;;;;4188676;28;20461;-61
2021/07/07 06:58:30;;;;;;;9.52;4.32;;;30.10;75.70;;;;;;4189117;28;20040;-61
2021/07/07 07:00:31;;;;;;;14.48;4.53;;;30.10;75.80;;;;;;4188189;28;20037;-61
2021/07/07 07:02:32;;;;;;;10.85;5.18;;;30.20;76.00;;;;;;4188211;28;20029;-61
2021/07/07 07:04:33;;;;;;;18.02;4.80;;;30.60;75.50;;;;;;4189002;28;20037;-61
2021/07/07 07:06:35;;;;;;;9.75;4.28;;;30.40;75.50;;;;;;4188189;28;20040;-62
2021/07/07 07:08:36;;;;;;;10.05;3.92;;;30.70;76.00;;;;;;4189788;28;20036;-61
2021/07/07 07:10:38;;;;;;;12.48;4.22;;;31.00;75.60;;;;;;4188381;28;20028;-62
2021/07/07 07:12:41;;;;;;;11.60;3.83;;;30.90;75.50;;;;;;4188246;28;20093;-62
2021/07/07 07:14:43;;;;;;;9.18;4.38;;;31.10;75.40;;;;;;4186001;28;20044;-62
2021/07/07 07:16:44;;;;;;;12.68;4.70;;;30.80;75.60;;;;;;4189228;28;20024;-61
2021/07/07 07:18:45;;;;;;;8.52;4.38;;;30.70;75.30;;;;;;4187379;28;20024;-62
2021/07/07 07:20:46;;;;;;;10.60;5.00;;;30.50;75.40;;;;;;4188807;28;20089;-62
2021/07/07 07:22:47;;;;;;;9.07;4.88;;;30.10;76.10;;;;;;4188007;28;20050;-62
2021/07/07 07:24:50;;;;;;;15.38;5.35;;;30.00;76.70;;;;;;4188234;28;20094;-62
2021/07/07 07:26:52;;;;;;;15.25;4.25;;;30.00;77.30;;;;;;4186588;28;20999;-62
2021/07/07 07:28:53;;;;;;;18.92;4.85;;;30.10;78.40;;;;;;4188372;28;20085;-63
2021/07/07 07:30:56;;;;;;;13.43;4.57;;;30.10;78.80;;;;;;4187838;28;20102;-62
2021/07/07 07:32:58;;;;;;;12.18;4.03;;;30.10;79.20;;;;;;4188034;28;20074;-62
2021/07/07 07:34:59;;;;;;;14.00;4.22;;;30.20;79.40;;;;;;4188766;28;20819;-62
2021/07/07 07:37:04;;;;;;;8.60;4.32;;;30.30;79.50;;;;;;4187775;28;20078;-62
2021/07/07 07:39:11;;;;;;;9.52;3.92;;;30.20;79.80;;;;;;4189061;28;20032;-62
2021/07/07 07:41:13;;;;;;;10.90;4.18;;;30.10;79.30;;;;;;4187899;28;20056;-62
2021/07/07 07:43:19;;;;;;;6.70;4.35;;;29.80;80.20;;;;;;4189011;28;20608;-62
2021/07/07 07:45:21;;;;;;;6.13;4.00;;;29.60;80.80;;;;;;4187913;28;20024;-62
2021/07/07 07:47:23;;;;;;;11.13;4.28;;;29.50;80.60;;;;;;4188204;28;20103;-62
2021/07/07 07:49:24;;;;;;;14.18;4.60;;;29.30;80.70;;;;;;4185541;28;20044;-62
2021/07/07 07:51:26;;;;;;;7.32;4.35;;;29.20;81.20;;;;;;4188664;28;20459;-62
2021/07/07 07:53:27;;;;;;;6.00;5.15;;;29.00;81.20;;;;;;4187877;28;20074;-61
2021/07/07 07:55:29;;;;;;;10.35;4.72;;;29.00;81.50;;;;;;4188269;28;20101;-61
2021/07/07 07:57:35;;;;;;;6.55;4.63;;;28.80;81.70;;;;;;4190602;28;20625;-62
2021/07/07 07:59:36;;;;;;;5.07;4.00;;;28.80;82.00;;;;;;4191956;28;20040;-62
2021/07/07 08:01:38;;;;;;;5.78;4.10;;;28.80;82.10;;;;;;4190978;28;20503;-62
2021/07/07 08:03:39;;;;;;;8.50;4.35;;;28.90;81.80;;;;;;4191405;28;20067;-62
2021/07/07 08:05:42;;;;;;;8.20;4.13;;;28.90;81.70;;;;;;4190944;28;20040;-62
2021/07/07 08:07:44;;;;;;;11.23;7.50;;;28.70;82.40;;;;;;4191105;28;20110;-62
2021/07/07 08:09:46;;;;;;;6.15;4.60;;;28.60;83.50;;;;;;4191835;28;20090;-62
2021/07/07 08:11:50;;;;;;;7.10;4.32;;;28.60;83.30;;;;;;4191174;28;20137;-61
2021/07/07 08:13:52;;;;;;;6.65;3.78;;;28.60;83.30;;;;;;4191283;28;20029;-61
2021/07/07 08:15:54;;;;;;;5.20;3.88;;;28.60;83.30;;;;;;4191370;28;20033;-60
2021/07/07 08:17:56;;;;;;;7.78;3.88;;;28.70;83.10;;;;;;4191302;28;20135;-61
2021/07/07 08:19:57;;;;;;;4.70;3.83;;;28.70;82.50;;;;;;4190591;28;20090;-61
2021/07/07 08:21:58;;;;;;;7.65;4.13;;;28.70;82.30;;;;;;4190123;28;20029;-62
2021/07/07 08:24:02;;;;;;;4.47;3.75;;;28.80;82.50;;;;;;4189165;28;20075;-62
2021/07/07 08:26:04;;;;;;;5.28;4.13;;;28.80;82.60;;;;;;4191442;28;20451;-61
2021/07/07 08:28:05;;;;;;;7.90;4.45;;;28.90;82.70;;;;;;4190710;28;20086;-61
2021/07/07 08:30:09;;;;;;;7.20;4.40;;;28.80;82.60;;;;;;4190966;28;20048;-61
2021/07/07 08:32:10;;;;;;;9.20;5.25;;;28.70;83.10;;;;;;4190290;28;20052;-62
2021/07/07 08:34:13;;;;;;;5.20;4.70;;;28.70;83.20;;;;;;4192032;28;20034;-62
2021/07/07 08:36:18;;;;;;;5.43;4.40;;;28.80;83.00;;;;;;4191168;28;20880;-61
2021/07/07 08:38:20;;;;;;;8.60;4.18;;;29.00;82.90;;;;;;4191062;28;20036;-62
2021/07/07 08:40:24;;;;;;;7.60;4.22;;;29.10;82.20;;;;;;4177221;28;20029;-61
2021/07/07 08:42:26;;;;;;;12.73;4.40;;;29.30;81.80;;;;;;4175330;28;20079;-62
2021/07/07 08:44:27;;;;;;;8.18;4.45;;;29.40;81.50;;;;;;4191230;28;20040;-60
2021/07/07 08:46:31;;;;;;;6.80;3.72;;;29.40;81.60;;;;;;4190792;28;20105;-60
2021/07/07 08:48:32;;;;;;;11.98;3.95;;;29.40;81.80;;;;;;4188789;28;20024;-60
2021/07/07 08:50:35;;;;;;;6.53;4.15;;;29.50;81.30;;;;;;4190801;28;20090;-60
2021/07/07 08:52:40;;;;;;;8.90;4.07;;;29.50;80.80;;;;;;4190771;28;20086;-60
2021/07/07 08:54:46;;;;;;;5.82;4.07;;;29.40;80.80;;;;;;4189817;28;20086;-61
2021/07/07 08:56:48;;;;;;;9.38;3.90;;;29.40;81.20;;;;;;4190514;28;20632;-61
2021/07/07 08:58:51;;;;;;;7.38;4.30;;;29.30;81.30;;;;;;4190894;28;20040;-61
2021/07/07 09:00:52;;;;;;;6.32;3.70;;;29.20;81.80;;;;;;4190732;28;20090;-60
2021/07/07 09:03:01;;;;;;;6.35;4.15;;;29.20;81.70;;;;;;4188608;28;20033;-60
2021/07/07 09:05:03;;;;;;;7.03;4.00;;;29.30;81.30;;;;;;4190384;28;20481;-60
2021/07/07 09:07:15;;;;;;;9.05;4.43;;;29.60;81.50;;;;;;4189467;28;20067;-61
2021/07/07 09:09:33;;;;;;;4.85;3.72;;;29.70;80.50;;;;;;4190516;28;20020;-61
2021/07/07 09:11:37;;;;;;;5.72;4.32;;;29.50;79.90;;;;;;4189381;28;20089;-61
2021/07/07 09:13:38;;;;;;;7.60;4.75;;;29.20;81.00;;;;;;4190598;28;20081;-61
2021/07/07 09:15:40;;;;;;;7.10;4.38;;;29.30;81.20;;;;;;4189238;28;20508;-60
2021/07/07 09:17:48;;;;;;;8.48;4.78;;;29.30;80.70;;;;;;4190269;28;20114;-61
2021/07/07 09:19:49;;;;;;;8.40;4.57;;;29.40;80.40;;;;;;4189807;28;20036;-61
2021/07/07 09:21:54;;;;;;;4.55;3.60;;;29.50;80.30;;;;;;4188413;28;20098;-61
2021/07/07 09:23:58;;;;;;;7.78;4.03;;;29.70;79.60;;;;;;4189480;28;20037;-60
2021/07/07 09:26:05;;;;;;;5.45;3.50;;;29.70;79.10;;;;;;4188847;28;20041;-59
2021/07/07 09:28:19;;;;;;;5.72;3.53;;;29.60;78.80;;;;;;4189763;28;20113;-61
2021/07/07 09:30:21;;;;;;;4.43;3.65;;;29.70;78.80;;;;;;4190193;28;20036;-61
2021/07/07 09:32:27;;;;;;;7.05;3.67;;;29.80;79.00;;;;;;4189656;28;20042;-60
2021/07/07 09:34:28;;;;;;;3.92;3.60;;;29.70;78.50;;;;;;4190451;28;20070;-59
2021/07/07 09:36:29;;;;;;;7.78;4.30;;;29.60;78.30;;;;;;4189883;28;20090;-60
2021/07/07 09:38:39;;;;;;;4.10;2.97;;;29.50;78.40;;;;;;4189837;28;20052;-60
2021/07/07 09:40:42;;;;;;;7.53;3.90;;;29.70;78.20;;;;;;4189907;28;20074;-59
2021/07/07 09:42:45;;;;;;;5.15;3.90;;;29.80;77.60;;;;;;4189384;28;20465;-60
2021/07/07 09:44:46;;;;;;;5.38;4.13;;;30.00;77.80;;;;;;4189826;28;20016;-61
2021/07/07 09:46:48;;;;;;;8.90;4.80;;;30.10;77.70;;;;;;4189881;28;20510;-61
2021/07/07 09:48:51;;;;;;;7.22;4.57;;;30.10;77.20;;;;;;4190345;28;20097;-60
2021/07/07 09:50:54;;;;;;;7.65;5.00;;;30.00;77.50;;;;;;4189826;28;20037;-61
2021/07/07 09:52:56;;;;;;;7.97;4.65;;;29.90;78.40;;;;;;4189629;28;20024;-61
2021/07/07 09:55:01;;;;;;;8.15;4.88;;;29.70;78.90;;;;;;4188885;28;20074;-61
2021/07/07 09:57:02;;;;;;;10.23;5.18;;;29.80;79.60;;;;;;4189314;28;20033;-59
2021/07/07 09:59:03;;;;;;;7.07;4.50;;;29.80;79.20;;;;;;4188866;28;20436;-61
2021/07/07 10:01:04;;;;;;;6.13;4.43;;;29.90;79.00;;;;;;4189695;28;20036;-61
2021/07/07 10:03:07;;;;;;;5.75;4.50;;;29.80;78.60;;;;;;4189345;28;20094;-61
2021/07/07 10:05:13;;;;;;;5.47;4.78;;;29.80;78.90;;;;;;4189090;28;20032;-61
2021/07/07 10:07:14;;;;;;;4.63;4.18;;;29.60;78.60;;;;;;4189150;28;20090;-61
2021/07/07 10:09:15;;;;;;;5.60;4.28;;;29.50;79.20;;;;;;4189517;28;20142;-64
2021/07/07 10:11:17;;;;;;;8.13;5.07;;;29.40;79.10;;;;;;4189291;28;20453;-62
2021/07/07 10:13:18;;;;;;;5.82;4.65;;;29.40;79.60;;;;;;4189786;28;20044;-62
2021/07/07 10:15:19;;;;;;;9.50;5.00;;;29.30;79.70;;;;;;4189610;28;20094;-61
2021/07/07 10:17:21;;;;;;;10.13;4.85;;;29.30;80.20;;;;;;4187105;28;20392;-60
2021/07/07 10:19:22;;;;;;;5.88;5.30;;;29.30;80.30;;;;;;4188994;28;20111;-61
2021/07/07 10:21:24;;;;;;;9.60;5.40;;;29.40;80.20;;;;;;4188883;28;20086;-61
2021/07/07 10:23:25;;;;;;;5.35;4.70;;;29.50;80.40;;;;;;4189816;28;20117;-62
2021/07/07 10:25:31;;;;;;;10.18;4.80;;;29.50;80.60;;;;;;4188894;28;20644;-61
2021/07/07 10:27:34;;;;;;;7.07;5.55;;;29.40;80.80;;;;;;4188790;28;20135;-61
2021/07/07 10:29:36;;;;;;;10.63;5.25;;;29.40;81.00;;;;;;4188414;28;21045;-62
2021/07/07 10:31:49;;;;;;;5.00;4.47;;;29.30;80.90;;;;;;4187872;28;20606;-62
2021/07/07 10:34:00;;;;;;;7.22;5.20;;;29.30;81.30;;;;;;4183318;28;20493;-60